WetterOnline ( https://www.wetteronline.de )

Wetter aktuell Levensau

Aktuelles Wetter: Kiel/Holtenau (27m)

6-stündlich | Neueste Meldungen
Ortszeit Temperatur Wetter
Fr, 27.11. 13:00 7.3° C wolkenlos
Fr, 27.11. 7:00 -0.0° C Nebel
Fr, 27.11. 1:00 2.4° C Nebel
Do, 26.11. 19:00 5.3° C wolkenlos
Do, 26.11. 13:00 9.9° C wolkenlos
Do, 26.11. 7:00 6.8° C Sprühregen
Do, 26.11. 1:00 4.3° C bedeckt
Mi, 25.11. 19:00 4.6° C wolkig
Ortszeit Temperatur Wetter
Fr, 27.11. 13:20 8° C -
Fr, 27.11. 13:00 7.3° C wolkenlos
Fr, 27.11. 12:50 7.3° C wolkenlos
Fr, 27.11. 12:40 7.7° C leicht bewölkt
Fr, 27.11. 12:30 7.2° C bewölkt
Fr, 27.11. 12:20 7.2° C bewölkt
Fr, 27.11. 12:00 7.3° C bewölkt
Fr, 27.11. 11:30 5.0° C leicht bewölkt
Fr, 27.11. 11:00 3.5° C leicht bewölkt
Fr, 27.11. 10:30 0.9° C wolkenlos
Fr, 27.11. 10:00 -0.1° C leicht bewölkt
Ortszeit Relative Feuchte Sichtweite
Fr, 27.11. 13:00 82% 3.1 km
Fr, 27.11. 7:00 100% 100 m
Fr, 27.11. 1:00 100% 100 m
Do, 26.11. 19:00 94% 29 km
Do, 26.11. 13:00 80% 40 km
Do, 26.11. 7:00 99% 1.6 km
Do, 26.11. 1:00 93% 9 km
Mi, 25.11. 19:00 91% 13 km
Ortszeit Relative Feuchte Sichtweite
Fr, 27.11. 13:20 81% >10 km
Fr, 27.11. 13:00 82% 3.1 km
Fr, 27.11. 12:50 82% -
Fr, 27.11. 12:40 81% -
Fr, 27.11. 12:30 80% 3.1 km
Fr, 27.11. 12:20 80% -
Fr, 27.11. 12:00 82% 30 km
Fr, 27.11. 11:30 92% 17 km
Fr, 27.11. 11:00 97% 10 km
Fr, 27.11. 10:30 98% 6 km
Fr, 27.11. 10:00 100% 1.4 km
Ortszeit Niederschlagsmenge Niederschlagsart
Fr, 27.11. 13:00 0.0 l/m2 in 6 Std. -
Fr, 27.11. 7:00 0.0 l/m2 in 12 Std. -
Fr, 27.11. 1:00 0.0 l/m2 in 6 Std. -
Do, 26.11. 19:00 0.5 l/m2 in 12 Std. -
Do, 26.11. 13:00 0.5 l/m2 in 6 Std. Regen
Do, 26.11. 7:00 0.1 l/m2 in 12 Std. Regen
Do, 26.11. 1:00 0.0 l/m2 in 6 Std. -
Mi, 25.11. 19:00 0.0 l/m2 in 12 Std. -
Ortszeit Niederschlagsmenge Niederschlagsart
Fr, 27.11. 13:20 keine Meldung -
Fr, 27.11. 13:00 0.0 l/m2 in 1 Std. -
Fr, 27.11. 12:50 keine Meldung -
Fr, 27.11. 12:40 keine Meldung -
Fr, 27.11. 12:30 0.0 l/m2 in 1 Std. -
Fr, 27.11. 12:20 keine Meldung -
Fr, 27.11. 12:00 0.0 l/m2 in 1 Std. -
Fr, 27.11. 11:30 0.0 l/m2 in 1 Std. -
Fr, 27.11. 11:00 0.0 l/m2 in 1 Std. -
Fr, 27.11. 10:30 0.0 l/m2 in 1 Std. -
Fr, 27.11. 10:00 0.0 l/m2 in 1 Std. -
Ortszeit Stärke Spitze Richtung
km/h Bft. km/h Grad Sektor
Fr, 27.11. 13:00 4 1 11 110° O
Fr, 27.11. 7:00 4 1 11 260° W
Fr, 27.11. 1:00 11 2 14 270° W
Do, 26.11. 19:00 9 2 28 250° W
Do, 26.11. 13:00 18 3 32 290° W
Do, 26.11. 7:00 13 3 20 220° SW
Do, 26.11. 1:00 11 2 25 210° SW
Mi, 25.11. 19:00 13 3 26 200° S
Ortszeit Stärke Spitze Richtung
km/h Bft. km/h Grad Sektor
Fr, 27.11. 13:20 6 1 - 80° O
Fr, 27.11. 13:00 4 1 11 110° O
Fr, 27.11. 12:50 4 1 - 110° O
Fr, 27.11. 12:40 6 1 - 140° SO
Fr, 27.11. 12:30 6 1 11 130° SO
Fr, 27.11. 12:20 6 1 - 130° SO
Fr, 27.11. 12:00 2 1 6 270° W
Fr, 27.11. 11:30 4 1 4 250° W
Fr, 27.11. 11:00 4 1 7 230° SW
Fr, 27.11. 10:30 4 1 7 230° SW
Fr, 27.11. 10:00 4 1 11 280° W
Ortszeit Untergrenze Bedeckung Gattung
total tief tief mittel hoch
Fr, 27.11. 13:00 - 0/8 0/8 - - -
Fr, 27.11. 7:00 <30 m 8/8 0/8 - - -
Fr, 27.11. 1:00 - 0/8 0/8 - - -
Do, 26.11. 19:00 - 0/8 0/8 - - -
Do, 26.11. 13:00 - 0/8 0/8 - - -
Do, 26.11. 7:00 60 m 8/8 8/8 - - -
Do, 26.11. 1:00 360 m 8/8 8/8 - - -
Mi, 25.11. 19:00 5700 m 8/8 1/8 - - -
Ortszeit Bedeckungsgrad in Achtel und Wolkenuntergrenze
Fr, 27.11. 13:20 keine Wolken(unter 1500 m)
Fr, 27.11. 13:00 keine Wolken
Fr, 27.11. 12:50 keine Wolken
Fr, 27.11. 12:40 2(990m)
Fr, 27.11. 12:30 7(1020m)
Fr, 27.11. 12:20 7(1020m)
Fr, 27.11. 12:00 7(1080m)
Fr, 27.11. 11:30 2(1080m)
Fr, 27.11. 11:00 3(1110m)
Fr, 27.11. 10:30 keine Wolken
Fr, 27.11. 10:00 2(<30m)
Ortszeit Luftdruck NN (hPa) Tendenz (hPa in 3 Std.)
Fr, 27.11. 13:00 1022 0,0
Fr, 27.11. 7:00 1022 + 0,2
Fr, 27.11. 1:00 1021 + 0,5
Do, 26.11. 19:00 1020 + 0,8
Do, 26.11. 13:00 1018 + 0,8
Do, 26.11. 7:00 1016 - 0,2
Do, 26.11. 1:00 1017 + 0,1
Mi, 25.11. 19:00 1016 + 0,2
Ortszeit Luftdruck NN (hPa) Tendenz (hPa in 3 Std.)
Fr, 27.11. 13:20 1022 keine Meldung
Fr, 27.11. 13:00 1022 0,0
Fr, 27.11. 12:50 1022 keine Meldung
Fr, 27.11. 12:40 1022 keine Meldung
Fr, 27.11. 12:30 1023 + 0,2
Fr, 27.11. 12:20 1023 keine Meldung
Fr, 27.11. 12:00 1023 + 0,5
Fr, 27.11. 11:30 1023 + 0,7
Fr, 27.11. 11:00 1023 + 1,0
Fr, 27.11. 10:30 1023 + 0,9
Fr, 27.11. 10:00 1023 + 1,0
Ortszeit Schneehöhe (cm)
Fr, 27.11. 13:00 0
Fr, 27.11. 7:00 0
Fr, 27.11. 1:00 0
Do, 26.11. 19:00 0
Do, 26.11. 13:00 0
Do, 26.11. 7:00 0
Do, 26.11. 1:00 0
Mi, 25.11. 19:00 0
Ortszeit Schneehöhe (cm)
Fr, 27.11. 13:20 -
Fr, 27.11. 13:00 0
Fr, 27.11. 12:50 0
Fr, 27.11. 12:40 0
Fr, 27.11. 12:30 0
Fr, 27.11. 12:20 0
Fr, 27.11. 12:00 0
Fr, 27.11. 11:30 0
Fr, 27.11. 11:00 0
Fr, 27.11. 10:30 0
Fr, 27.11. 10:00 0
Link zu dieser Seite / Seite empfehlen

Das Wetter in ...